Main page
METAR-TAF:

METAR-TAF

Airports :

Antwerp International Airport

Antwerp, Belgium

latitude: 51-12N, longitude: 004-28E, elevation: 12 m

Current weather observation

The report was made 31 minutes ago, at 17:20 UTC
Wind 4 kt from the East
Temperature 9°C
Humidity 66%
Pressure 1023 hPa
Visibility 10 km or more
no clouds below 1500 m and no cumulonimbus

METAR: EBAW 151720Z 10004KT CAVOK 09/03 Q1023 NOSIG

Time: 18:51 (17:51 UTC)

Forecast

The report was made 31 minutes ago, at 17:20 UTC
Forecast valid from 15 at 18 UTC to 16 at 03 UTC
Wind 4 kt from the East/Southeast
Visibility 10 km or more
no clouds below 1500 m and no cumulonimbus
Temporary
from 15 at 20 UTC to 16 at 03 UTC
Visibility: 2500 m
Broken clouds at a height of 400 ft
mist
Probability 40% :
Temporary
from 15 at 21 UTC to 16 at 03 UTC
Visibility: 0500 m
Broken clouds at a height of 200 ft
fog

TAF: EBAW 151720Z 1518/1603 12004KT CAVOK TEMPO 1520/1603 2500 BR BKN004 PROB40 TEMPO 1521/1603 0500 FG BKN002

Weather observations and forecasts of more than 4000 airports (METAR and TAF reports).

The available stations are represented by yellow and red dots on the map.

Hover mouse over dot to see the name of the station.

Then click to see weather observations and forecasts.

To change the map : click on the green buttons with a black cross to zoom in, on the green button with a dash to zoom out, or on the green arrows for adjacent maps.


METAR-TAF: